sensor_id;sensor_type;location;lat;lon;timestamp;P1;durP1;ratioP1;P2;durP2;ratioP2
56537;SDS011;42435;53.292;6.000;2022-08-02T00:02:18;7.35;;;2.40;;
56537;SDS011;42435;53.292;6.000;2022-08-02T00:04:44;11.75;;;3.10;;
56537;SDS011;42435;53.292;6.000;2022-08-02T00:07:11;5.00;;;1.98;;
56537;SDS011;42435;53.292;6.000;2022-08-02T00:09:36;4.43;;;1.77;;
56537;SDS011;42435;53.292;6.000;2022-08-02T00:12:02;4.15;;;1.80;;
56537;SDS011;42435;53.292;6.000;2022-08-02T00:14:28;6.30;;;2.40;;
56537;SDS011;42435;53.292;6.000;2022-08-02T00:16:54;8.52;;;2.13;;
56537;SDS011;42435;53.292;6.000;2022-08-02T00:19:20;5.25;;;2.22;;
56537;SDS011;42435;53.292;6.000;2022-08-02T00:21:45;5.40;;;2.35;;
56537;SDS011;42435;53.292;6.000;2022-08-02T00:24:11;12.02;;;3.10;;
56537;SDS011;42435;53.292;6.000;2022-08-02T00:26:48;10.00;;;2.75;;
56537;SDS011;42435;53.292;6.000;2022-08-02T00:29:14;6.32;;;2.85;;
56537;SDS011;42435;53.292;6.000;2022-08-02T00:31:40;7.18;;;2.38;;
56537;SDS011;42435;53.292;6.000;2022-08-02T00:34:05;3.70;;;2.13;;
56537;SDS011;42435;53.292;6.000;2022-08-02T00:36:31;4.80;;;2.28;;
56537;SDS011;42435;53.292;6.000;2022-08-02T00:39:00;6.90;;;3.20;;
56537;SDS011;42435;53.292;6.000;2022-08-02T00:41:25;6.68;;;2.20;;
56537;SDS011;42435;53.292;6.000;2022-08-02T00:43:51;5.68;;;2.60;;
56537;SDS011;42435;53.292;6.000;2022-08-02T00:46:17;3.13;;;2.13;;
56537;SDS011;42435;53.292;6.000;2022-08-02T00:48:44;3.42;;;1.88;;
56537;SDS011;42435;53.292;6.000;2022-08-02T00:51:10;5.13;;;2.13;;
56537;SDS011;42435;53.292;6.000;2022-08-02T00:53:37;5.43;;;2.30;;
56537;SDS011;42435;53.292;6.000;2022-08-02T00:56:06;8.38;;;2.15;;
56537;SDS011;42435;53.292;6.000;2022-08-02T00:58:32;7.03;;;3.60;;
56537;SDS011;42435;53.292;6.000;2022-08-02T01:01:00;5.25;;;2.05;;
56537;SDS011;42435;53.292;6.000;2022-08-02T01:03:26;5.60;;;2.45;;
56537;SDS011;42435;53.292;6.000;2022-08-02T01:05:52;9.15;;;3.63;;
56537;SDS011;42435;53.292;6.000;2022-08-02T01:08:20;5.82;;;2.60;;
56537;SDS011;42435;53.292;6.000;2022-08-02T01:10:49;3.83;;;2.28;;
56537;SDS011;42435;53.292;6.000;2022-08-02T01:13:15;6.05;;;2.92;;
56537;SDS011;42435;53.292;6.000;2022-08-02T01:15:42;6.57;;;2.40;;
56537;SDS011;42435;53.292;6.000;2022-08-02T01:18:18;7.72;;;3.35;;
56537;SDS011;42435;53.292;6.000;2022-08-02T01:37:13;7.78;;;2.95;;
56537;SDS011;42435;53.292;6.000;2022-08-02T01:39:43;7.80;;;2.75;;
56537;SDS011;42435;53.292;6.000;2022-08-02T01:42:12;13.10;;;4.05;;
56537;SDS011;42435;53.292;6.000;2022-08-02T01:44:42;5.78;;;2.40;;
56537;SDS011;42435;53.292;6.000;2022-08-02T01:47:13;3.90;;;2.80;;
56537;SDS011;42435;53.292;6.000;2022-08-02T01:49:43;10.65;;;2.58;;
56537;SDS011;42435;53.292;6.000;2022-08-02T01:52:12;6.32;;;2.80;;
56537;SDS011;42435;53.292;6.000;2022-08-02T01:55:11;4.25;;;2.53;;
56537;SDS011;42435;53.292;6.000;2022-08-02T01:57:49;3.78;;;2.40;;
56537;SDS011;42435;53.292;6.000;2022-08-02T02:00:24;3.92;;;2.22;;
56537;SDS011;42435;53.292;6.000;2022-08-02T02:02:53;2.65;;;1.85;;
56537;SDS011;42435;53.292;6.000;2022-08-02T02:05:21;13.13;;;2.88;;
56537;SDS011;42435;53.292;6.000;2022-08-02T02:07:50;6.88;;;2.50;;
56537;SDS011;42435;53.292;6.000;2022-08-02T02:10:22;7.72;;;2.78;;
56537;SDS011;42435;53.292;6.000;2022-08-02T02:12:55;4.93;;;2.22;;
56537;SDS011;42435;53.292;6.000;2022-08-02T02:15:25;4.80;;;2.10;;
56537;SDS011;42435;53.292;6.000;2022-08-02T02:17:51;5.82;;;1.95;;
56537;SDS011;42435;53.292;6.000;2022-08-02T02:20:19;3.85;;;1.98;;
56537;SDS011;42435;53.292;6.000;2022-08-02T02:22:45;3.42;;;2.00;;
56537;SDS011;42435;53.292;6.000;2022-08-02T02:25:12;6.85;;;2.90;;
56537;SDS011;42435;53.292;6.000;2022-08-02T02:27:42;8.50;;;2.33;;
56537;SDS011;42435;53.292;6.000;2022-08-02T02:30:13;5.95;;;2.20;;
56537;SDS011;42435;53.292;6.000;2022-08-02T02:32:40;8.85;;;2.55;;
56537;SDS011;42435;53.292;6.000;2022-08-02T02:35:09;6.47;;;1.85;;
56537;SDS011;42435;53.292;6.000;2022-08-02T02:37:37;5.82;;;3.13;;
56537;SDS011;42435;53.292;6.000;2022-08-02T02:40:05;5.05;;;1.98;;
56537;SDS011;42435;53.292;6.000;2022-08-02T02:42:32;5.32;;;2.15;;
56537;SDS011;42435;53.292;6.000;2022-08-02T02:45:02;6.88;;;2.30;;
56537;SDS011;42435;53.292;6.000;2022-08-02T02:47:28;4.00;;;2.20;;
56537;SDS011;42435;53.292;6.000;2022-08-02T02:49:56;6.80;;;2.53;;
56537;SDS011;42435;53.292;6.000;2022-08-02T02:52:23;12.10;;;3.78;;
56537;SDS011;42435;53.292;6.000;2022-08-02T02:54:49;5.47;;;2.70;;
56537;SDS011;42435;53.292;6.000;2022-08-02T02:57:16;5.15;;;2.55;;
56537;SDS011;42435;53.292;6.000;2022-08-02T02:59:42;5.63;;;2.72;;
56537;SDS011;42435;53.292;6.000;2022-08-02T03:02:09;5.70;;;2.58;;
56537;SDS011;42435;53.292;6.000;2022-08-02T03:04:35;4.40;;;2.03;;
56537;SDS011;42435;53.292;6.000;2022-08-02T03:07:04;6.75;;;2.50;;
56537;SDS011;42435;53.292;6.000;2022-08-02T03:09:32;6.07;;;2.33;;
56537;SDS011;42435;53.292;6.000;2022-08-02T03:11:58;5.80;;;2.30;;
56537;SDS011;42435;53.292;6.000;2022-08-02T03:14:23;3.13;;;2.20;;
56537;SDS011;42435;53.292;6.000;2022-08-02T03:16:52;7.85;;;2.70;;
56537;SDS011;42435;53.292;6.000;2022-08-02T03:19:18;7.82;;;2.90;;
56537;SDS011;42435;53.292;6.000;2022-08-02T03:21:46;7.55;;;2.42;;
56537;SDS011;42435;53.292;6.000;2022-08-02T03:24:13;6.93;;;2.53;;
56537;SDS011;42435;53.292;6.000;2022-08-02T03:26:38;4.85;;;2.35;;
56537;SDS011;42435;53.292;6.000;2022-08-02T03:29:04;5.65;;;2.40;;
56537;SDS011;42435;53.292;6.000;2022-08-02T03:31:30;3.60;;;2.00;;
56537;SDS011;42435;53.292;6.000;2022-08-02T03:33:57;7.53;;;3.00;;
56537;SDS011;42435;53.292;6.000;2022-08-02T03:36:24;5.20;;;2.17;;
56537;SDS011;42435;53.292;6.000;2022-08-02T03:38:54;6.53;;;2.53;;
56537;SDS011;42435;53.292;6.000;2022-08-02T03:41:23;6.90;;;2.72;;
56537;SDS011;42435;53.292;6.000;2022-08-02T03:43:53;6.93;;;2.10;;
56537;SDS011;42435;53.292;6.000;2022-08-02T03:46:21;4.10;;;2.50;;
56537;SDS011;42435;53.292;6.000;2022-08-02T03:48:49;4.10;;;2.55;;
56537;SDS011;42435;53.292;6.000;2022-08-02T03:51:15;5.43;;;2.90;;
56537;SDS011;42435;53.292;6.000;2022-08-02T03:53:43;7.15;;;2.90;;
56537;SDS011;42435;53.292;6.000;2022-08-02T03:56:12;10.05;;;2.60;;
56537;SDS011;42435;53.292;6.000;2022-08-02T03:58:39;6.68;;;2.47;;
56537;SDS011;42435;53.292;6.000;2022-08-02T04:01:05;5.15;;;2.60;;
56537;SDS011;42435;53.292;6.000;2022-08-02T04:03:30;5.32;;;2.38;;
56537;SDS011;42435;53.292;6.000;2022-08-02T04:05:59;8.60;;;2.90;;
56537;SDS011;42435;53.292;6.000;2022-08-02T04:08:24;6.75;;;2.00;;
56537;SDS011;42435;53.292;6.000;2022-08-02T04:10:50;5.45;;;2.47;;
56537;SDS011;42435;53.292;6.000;2022-08-02T04:13:39;6.97;;;2.42;;
56537;SDS011;42435;53.292;6.000;2022-08-02T04:18:39;4.50;;;2.63;;
56537;SDS011;42435;53.292;6.000;2022-08-02T04:21:10;8.20;;;2.67;;
56537;SDS011;42435;53.292;6.000;2022-08-02T04:23:39;5.10;;;2.33;;
56537;SDS011;42435;53.292;6.000;2022-08-02T04:26:09;5.80;;;2.30;;
56537;SDS011;42435;53.292;6.000;2022-08-02T04:28:35;5.93;;;2.25;;
56537;SDS011;42435;53.292;6.000;2022-08-02T04:31:01;5.00;;;2.47;;
56537;SDS011;42435;53.292;6.000;2022-08-02T04:33:29;6.15;;;2.10;;
56537;SDS011;42435;53.292;6.000;2022-08-02T04:35:55;9.55;;;2.47;;
56537;SDS011;42435;53.292;6.000;2022-08-02T04:38:22;9.32;;;3.03;;
56537;SDS011;42435;53.292;6.000;2022-08-02T04:40:53;8.43;;;2.70;;
56537;SDS011;42435;53.292;6.000;2022-08-02T04:43:20;6.85;;;2.50;;
56537;SDS011;42435;53.292;6.000;2022-08-02T04:45:50;10.55;;;2.97;;
56537;SDS011;42435;53.292;6.000;2022-08-02T04:48:17;4.82;;;2.25;;
56537;SDS011;42435;53.292;6.000;2022-08-02T04:50:43;6.20;;;2.28;;
56537;SDS011;42435;53.292;6.000;2022-08-02T04:53:12;5.43;;;2.50;;
56537;SDS011;42435;53.292;6.000;2022-08-02T04:55:38;6.32;;;2.15;;
56537;SDS011;42435;53.292;6.000;2022-08-02T04:58:07;5.90;;;2.75;;
56537;SDS011;42435;53.292;6.000;2022-08-02T05:00:36;9.38;;;3.85;;
56537;SDS011;42435;53.292;6.000;2022-08-02T05:03:01;4.32;;;2.55;;
56537;SDS011;42435;53.292;6.000;2022-08-02T05:05:39;4.78;;;2.85;;
56537;SDS011;42435;53.292;6.000;2022-08-02T05:08:21;3.83;;;2.47;;
56537;SDS011;42435;53.292;6.000;2022-08-02T05:10:47;4.43;;;2.13;;
56537;SDS011;42435;53.292;6.000;2022-08-02T05:13:12;5.53;;;3.13;;
56537;SDS011;42435;53.292;6.000;2022-08-02T05:15:38;6.20;;;2.40;;
56537;SDS011;42435;53.292;6.000;2022-08-02T05:18:04;8.43;;;3.60;;
56537;SDS011;42435;53.292;6.000;2022-08-02T05:20:33;6.72;;;2.20;;
56537;SDS011;42435;53.292;6.000;2022-08-02T05:22:58;5.57;;;2.05;;
56537;SDS011;42435;53.292;6.000;2022-08-02T05:25:24;5.45;;;2.28;;
56537;SDS011;42435;53.292;6.000;2022-08-02T05:27:49;5.43;;;2.17;;
56537;SDS011;42435;53.292;6.000;2022-08-02T05:30:15;7.82;;;2.42;;
56537;SDS011;42435;53.292;6.000;2022-08-02T05:32:41;6.50;;;2.70;;
56537;SDS011;42435;53.292;6.000;2022-08-02T05:35:11;5.82;;;2.92;;
56537;SDS011;42435;53.292;6.000;2022-08-02T05:37:37;8.07;;;2.30;;
56537;SDS011;42435;53.292;6.000;2022-08-02T05:40:06;5.93;;;2.28;;
56537;SDS011;42435;53.292;6.000;2022-08-02T05:42:31;9.40;;;2.58;;
56537;SDS011;42435;53.292;6.000;2022-08-02T05:44:57;9.43;;;2.42;;
56537;SDS011;42435;53.292;6.000;2022-08-02T05:47:23;7.70;;;2.55;;
56537;SDS011;42435;53.292;6.000;2022-08-02T05:49:49;5.82;;;2.30;;
56537;SDS011;42435;53.292;6.000;2022-08-02T05:52:16;3.70;;;2.25;;
56537;SDS011;42435;53.292;6.000;2022-08-02T05:54:54;3.00;;;1.95;;
56537;SDS011;42435;53.292;6.000;2022-08-02T06:00:09;8.80;;;2.33;;
56537;SDS011;42435;53.292;6.000;2022-08-02T06:02:43;7.38;;;2.47;;
56537;SDS011;42435;53.292;6.000;2022-08-02T06:05:32;6.97;;;2.22;;
56537;SDS011;42435;53.292;6.000;2022-08-02T06:07:59;5.53;;;2.72;;
56537;SDS011;42435;53.292;6.000;2022-08-02T06:10:27;8.73;;;2.53;;
56537;SDS011;42435;53.292;6.000;2022-08-02T06:12:55;2.90;;;1.85;;
56537;SDS011;42435;53.292;6.000;2022-08-02T06:15:31;6.90;;;2.03;;
56537;SDS011;42435;53.292;6.000;2022-08-02T06:17:58;6.78;;;2.78;;
56537;SDS011;42435;53.292;6.000;2022-08-02T06:20:24;11.68;;;2.17;;
56537;SDS011;42435;53.292;6.000;2022-08-02T06:22:51;11.30;;;2.10;;
56537;SDS011;42435;53.292;6.000;2022-08-02T06:25:19;7.72;;;2.28;;
56537;SDS011;42435;53.292;6.000;2022-08-02T06:27:46;5.53;;;2.00;;
56537;SDS011;42435;53.292;6.000;2022-08-02T06:30:13;5.65;;;2.25;;
56537;SDS011;42435;53.292;6.000;2022-08-02T06:32:42;5.43;;;2.30;;
56537;SDS011;42435;53.292;6.000;2022-08-02T06:35:09;7.95;;;2.20;;
56537;SDS011;42435;53.292;6.000;2022-08-02T06:45:51;5.20;;;1.55;;
56537;SDS011;42435;53.292;6.000;2022-08-02T06:48:17;3.45;;;1.70;;
56537;SDS011;42435;53.292;6.000;2022-08-02T06:50:42;4.68;;;1.90;;
56537;SDS011;42435;53.292;6.000;2022-08-02T06:53:08;3.45;;;1.75;;
56537;SDS011;42435;53.292;6.000;2022-08-02T06:55:35;1.60;;;1.25;;
56537;SDS011;42435;53.292;6.000;2022-08-02T06:58:01;6.13;;;2.28;;
56537;SDS011;42435;53.292;6.000;2022-08-02T07:00:27;4.03;;;1.70;;
56537;SDS011;42435;53.292;6.000;2022-08-02T07:02:53;4.35;;;1.40;;
56537;SDS011;42435;53.292;6.000;2022-08-02T07:05:19;6.13;;;1.50;;
56537;SDS011;42435;53.292;6.000;2022-08-02T07:07:48;2.55;;;1.25;;
56537;SDS011;42435;53.292;6.000;2022-08-02T07:10:23;3.75;;;1.40;;
56537;SDS011;42435;53.292;6.000;2022-08-02T07:12:49;3.47;;;1.83;;
56537;SDS011;42435;53.292;6.000;2022-08-02T07:15:17;2.78;;;1.70;;
56537;SDS011;42435;53.292;6.000;2022-08-02T07:17:43;3.38;;;1.75;;
56537;SDS011;42435;53.292;6.000;2022-08-02T07:20:09;2.47;;;1.35;;
56537;SDS011;42435;53.292;6.000;2022-08-02T07:22:35;3.70;;;1.38;;
56537;SDS011;42435;53.292;6.000;2022-08-02T07:25:01;3.15;;;1.40;;
56537;SDS011;42435;53.292;6.000;2022-08-02T07:27:27;3.08;;;1.38;;
56537;SDS011;42435;53.292;6.000;2022-08-02T07:29:56;4.45;;;1.33;;
56537;SDS011;42435;53.292;6.000;2022-08-02T07:32:27;2.22;;;1.02;;
56537;SDS011;42435;53.292;6.000;2022-08-02T07:34:54;2.50;;;1.33;;
56537;SDS011;42435;53.292;6.000;2022-08-02T07:37:25;3.20;;;1.30;;
56537;SDS011;42435;53.292;6.000;2022-08-02T07:39:52;3.65;;;1.58;;
56537;SDS011;42435;53.292;6.000;2022-08-02T07:42:20;2.50;;;1.10;;
56537;SDS011;42435;53.292;6.000;2022-08-02T07:44:46;1.90;;;1.10;;
56537;SDS011;42435;53.292;6.000;2022-08-02T07:47:12;5.13;;;1.25;;
56537;SDS011;42435;53.292;6.000;2022-08-02T07:49:41;4.38;;;1.30;;
56537;SDS011;42435;53.292;6.000;2022-08-02T07:52:06;1.65;;;0.80;;
56537;SDS011;42435;53.292;6.000;2022-08-02T07:54:32;3.08;;;0.80;;
56537;SDS011;42435;53.292;6.000;2022-08-02T07:56:58;2.20;;;0.98;;
56537;SDS011;42435;53.292;6.000;2022-08-02T07:59:25;1.67;;;1.10;;
56537;SDS011;42435;53.292;6.000;2022-08-02T08:01:51;1.40;;;1.30;;
56537;SDS011;42435;53.292;6.000;2022-08-02T08:04:17;2.50;;;1.08;;
56537;SDS011;42435;53.292;6.000;2022-08-02T08:06:42;3.65;;;1.00;;
56537;SDS011;42435;53.292;6.000;2022-08-02T08:09:09;2.10;;;0.80;;
56537;SDS011;42435;53.292;6.000;2022-08-02T08:11:35;3.58;;;0.90;;
56537;SDS011;42435;53.292;6.000;2022-08-02T08:14:00;2.13;;;1.00;;
56537;SDS011;42435;53.292;6.000;2022-08-02T08:16:26;3.17;;;1.35;;
56537;SDS011;42435;53.292;6.000;2022-08-02T08:18:54;4.10;;;1.73;;
56537;SDS011;42435;53.292;6.000;2022-08-02T08:21:20;2.10;;;0.80;;
56537;SDS011;42435;53.292;6.000;2022-08-02T08:23:46;4.18;;;1.55;;
56537;SDS011;42435;53.292;6.000;2022-08-02T08:26:11;4.47;;;1.38;;
56537;SDS011;42435;53.292;6.000;2022-08-02T08:28:37;1.45;;;0.70;;
56537;SDS011;42435;53.292;6.000;2022-08-02T08:31:03;3.83;;;0.93;;
56537;SDS011;42435;53.292;6.000;2022-08-02T08:33:28;3.22;;;1.33;;
56537;SDS011;42435;53.292;6.000;2022-08-02T08:35:54;1.73;;;0.90;;
56537;SDS011;42435;53.292;6.000;2022-08-02T08:38:20;2.33;;;1.23;;
56537;SDS011;42435;53.292;6.000;2022-08-02T08:40:50;2.78;;;1.30;;
56537;SDS011;42435;53.292;6.000;2022-08-02T08:43:16;5.90;;;1.70;;
56537;SDS011;42435;53.292;6.000;2022-08-02T08:45:42;1.88;;;1.25;;
56537;SDS011;42435;53.292;6.000;2022-08-02T08:48:09;2.83;;;1.20;;
56537;SDS011;42435;53.292;6.000;2022-08-02T08:50:38;3.22;;;1.10;;
56537;SDS011;42435;53.292;6.000;2022-08-02T08:53:11;3.42;;;1.10;;
56537;SDS011;42435;53.292;6.000;2022-08-02T08:55:42;3.05;;;1.13;;
56537;SDS011;42435;53.292;6.000;2022-08-02T08:58:08;4.03;;;1.50;;
56537;SDS011;42435;53.292;6.000;2022-08-02T09:00:36;2.92;;;1.30;;
56537;SDS011;42435;53.292;6.000;2022-08-02T09:03:05;3.30;;;1.10;;
56537;SDS011;42435;53.292;6.000;2022-08-02T09:05:38;4.32;;;1.30;;
56537;SDS011;42435;53.292;6.000;2022-08-02T09:08:06;4.75;;;1.63;;
56537;SDS011;42435;53.292;6.000;2022-08-02T09:13:11;2.13;;;1.20;;
56537;SDS011;42435;53.292;6.000;2022-08-02T09:15:52;2.40;;;1.30;;
56537;SDS011;42435;53.292;6.000;2022-08-02T09:18:38;5.35;;;1.70;;
56537;SDS011;42435;53.292;6.000;2022-08-02T09:21:08;4.63;;;1.83;;
56537;SDS011;42435;53.292;6.000;2022-08-02T09:23:35;3.65;;;1.42;;
56537;SDS011;42435;53.292;6.000;2022-08-02T09:26:06;3.33;;;1.25;;
56537;SDS011;42435;53.292;6.000;2022-08-02T09:28:34;2.42;;;1.50;;
56537;SDS011;42435;53.292;6.000;2022-08-02T09:31:02;2.95;;;1.80;;
56537;SDS011;42435;53.292;6.000;2022-08-02T09:33:30;2.17;;;1.75;;
56537;SDS011;42435;53.292;6.000;2022-08-02T09:35:59;3.00;;;2.42;;
56537;SDS011;42435;53.292;6.000;2022-08-02T09:38:25;3.75;;;1.80;;
56537;SDS011;42435;53.292;6.000;2022-08-02T09:40:51;3.00;;;1.60;;
56537;SDS011;42435;53.292;6.000;2022-08-02T09:43:17;2.50;;;1.88;;
56537;SDS011;42435;53.292;6.000;2022-08-02T09:45:44;4.50;;;2.22;;
56537;SDS011;42435;53.292;6.000;2022-08-02T09:48:11;3.85;;;2.20;;
56537;SDS011;42435;53.292;6.000;2022-08-02T09:50:37;4.25;;;2.38;;
56537;SDS011;42435;53.292;6.000;2022-08-02T09:53:04;4.70;;;2.63;;
56537;SDS011;42435;53.292;6.000;2022-08-02T09:55:34;5.13;;;2.53;;
56537;SDS011;42435;53.292;6.000;2022-08-02T09:58:15;5.47;;;2.42;;
56537;SDS011;42435;53.292;6.000;2022-08-02T10:00:55;3.78;;;2.33;;
56537;SDS011;42435;53.292;6.000;2022-08-02T10:03:23;5.60;;;2.67;;
56537;SDS011;42435;53.292;6.000;2022-08-02T10:05:52;3.28;;;2.15;;
56537;SDS011;42435;53.292;6.000;2022-08-02T10:08:19;4.90;;;3.05;;
56537;SDS011;42435;53.292;6.000;2022-08-02T10:10:48;4.93;;;2.90;;
56537;SDS011;42435;53.292;6.000;2022-08-02T10:13:25;4.20;;;3.08;;
56537;SDS011;42435;53.292;6.000;2022-08-02T10:15:54;5.93;;;3.20;;
56537;SDS011;42435;53.292;6.000;2022-08-02T10:18:21;5.80;;;3.13;;
56537;SDS011;42435;53.292;6.000;2022-08-02T10:20:46;5.70;;;3.00;;
56537;SDS011;42435;53.292;6.000;2022-08-02T10:23:14;5.10;;;3.15;;
56537;SDS011;42435;53.292;6.000;2022-08-02T10:25:41;4.65;;;3.28;;
56537;SDS011;42435;53.292;6.000;2022-08-02T10:28:14;9.85;;;3.20;;
56537;SDS011;42435;53.292;6.000;2022-08-02T10:30:41;6.68;;;3.33;;
56537;SDS011;42435;53.292;6.000;2022-08-02T10:33:12;4.10;;;2.50;;
56537;SDS011;42435;53.292;6.000;2022-08-02T10:35:41;4.05;;;2.67;;
56537;SDS011;42435;53.292;6.000;2022-08-02T10:38:08;6.65;;;2.88;;
56537;SDS011;42435;53.292;6.000;2022-08-02T10:46:19;5.93;;;2.78;;
56537;SDS011;42435;53.292;6.000;2022-08-02T10:49:02;8.23;;;4.22;;
56537;SDS011;42435;53.292;6.000;2022-08-02T10:52:13;6.18;;;3.30;;
56537;SDS011;42435;53.292;6.000;2022-08-02T10:57:02;10.93;;;4.63;;
56537;SDS011;42435;53.292;6.000;2022-08-02T11:00:02;10.75;;;4.68;;
56537;SDS011;42435;53.292;6.000;2022-08-02T11:05:10;9.73;;;5.63;;
56537;SDS011;42435;53.292;6.000;2022-08-02T11:07:42;12.32;;;6.85;;
56537;SDS011;42435;53.292;6.000;2022-08-02T11:10:26;11.73;;;7.15;;
56537;SDS011;42435;53.292;6.000;2022-08-02T11:13:15;11.77;;;7.43;;
56537;SDS011;42435;53.292;6.000;2022-08-02T11:15:59;11.27;;;7.60;;
56537;SDS011;42435;53.292;6.000;2022-08-02T11:23:45;13.93;;;8.20;;
56537;SDS011;42435;53.292;6.000;2022-08-02T11:28:55;12.80;;;7.60;;
56537;SDS011;42435;53.292;6.000;2022-08-02T11:31:21;10.75;;;7.35;;
56537;SDS011;42435;53.292;6.000;2022-08-02T11:33:50;10.43;;;7.78;;
56537;SDS011;42435;53.292;6.000;2022-08-02T11:36:16;12.95;;;9.25;;
56537;SDS011;42435;53.292;6.000;2022-08-02T11:38:42;13.80;;;8.93;;
56537;SDS011;42435;53.292;6.000;2022-08-02T11:41:09;15.38;;;8.35;;
56537;SDS011;42435;53.292;6.000;2022-08-02T11:43:46;11.55;;;7.93;;
56537;SDS011;42435;53.292;6.000;2022-08-02T11:46:18;11.93;;;7.93;;
56537;SDS011;42435;53.292;6.000;2022-08-02T11:48:44;13.25;;;8.65;;
56537;SDS011;42435;53.292;6.000;2022-08-02T11:51:11;11.93;;;7.90;;
56537;SDS011;42435;53.292;6.000;2022-08-02T11:53:42;12.77;;;9.05;;
56537;SDS011;42435;53.292;6.000;2022-08-02T11:58:58;13.27;;;8.13;;
56537;SDS011;42435;53.292;6.000;2022-08-02T12:01:28;16.60;;;8.60;;
56537;SDS011;42435;53.292;6.000;2022-08-02T12:03:55;15.15;;;8.57;;
56537;SDS011;42435;53.292;6.000;2022-08-02T12:06:24;12.02;;;8.55;;
56537;SDS011;42435;53.292;6.000;2022-08-02T12:08:57;12.43;;;7.65;;
56537;SDS011;42435;53.292;6.000;2022-08-02T12:11:29;11.95;;;7.97;;
56537;SDS011;42435;53.292;6.000;2022-08-02T12:13:58;13.93;;;8.98;;
56537;SDS011;42435;53.292;6.000;2022-08-02T12:16:24;11.98;;;8.50;;
56537;SDS011;42435;53.292;6.000;2022-08-02T12:19:16;13.73;;;8.38;;
56537;SDS011;42435;53.292;6.000;2022-08-02T12:21:47;12.50;;;7.57;;
56537;SDS011;42435;53.292;6.000;2022-08-02T12:24:32;14.38;;;8.50;;
56537;SDS011;42435;53.292;6.000;2022-08-02T12:26:58;15.52;;;8.48;;
56537;SDS011;42435;53.292;6.000;2022-08-02T12:29:28;14.93;;;9.02;;
56537;SDS011;42435;53.292;6.000;2022-08-02T12:31:58;14.70;;;9.77;;
56537;SDS011;42435;53.292;6.000;2022-08-02T12:34:25;15.10;;;9.27;;
56537;SDS011;42435;53.292;6.000;2022-08-02T12:42:00;12.68;;;8.82;;
56537;SDS011;42435;53.292;6.000;2022-08-02T12:44:26;14.63;;;9.65;;
56537;SDS011;42435;53.292;6.000;2022-08-02T12:47:02;14.70;;;9.13;;
56537;SDS011;42435;53.292;6.000;2022-08-02T12:49:29;10.45;;;7.18;;
56537;SDS011;42435;53.292;6.000;2022-08-02T12:51:55;14.40;;;8.93;;
56537;SDS011;42435;53.292;6.000;2022-08-02T12:54:25;12.23;;;7.90;;
56537;SDS011;42435;53.292;6.000;2022-08-02T12:56:53;15.40;;;9.43;;
56537;SDS011;42435;53.292;6.000;2022-08-02T12:59:32;15.07;;;8.95;;
56537;SDS011;42435;53.292;6.000;2022-08-02T13:02:03;14.18;;;9.93;;
56537;SDS011;42435;53.292;6.000;2022-08-02T13:04:33;13.82;;;8.95;;
56537;SDS011;42435;53.292;6.000;2022-08-02T13:06:59;15.57;;;9.73;;
56537;SDS011;42435;53.292;6.000;2022-08-02T13:09:24;19.67;;;9.95;;
56537;SDS011;42435;53.292;6.000;2022-08-02T13:11:50;14.50;;;8.93;;
56537;SDS011;42435;53.292;6.000;2022-08-02T13:14:16;15.90;;;9.25;;
56537;SDS011;42435;53.292;6.000;2022-08-02T13:16:42;17.88;;;9.77;;
56537;SDS011;42435;53.292;6.000;2022-08-02T13:19:08;14.10;;;9.00;;
56537;SDS011;42435;53.292;6.000;2022-08-02T13:21:34;14.32;;;9.50;;
56537;SDS011;42435;53.292;6.000;2022-08-02T13:24:00;14.30;;;9.77;;
56537;SDS011;42435;53.292;6.000;2022-08-02T13:26:25;14.68;;;9.13;;
56537;SDS011;42435;53.292;6.000;2022-08-02T13:28:51;16.35;;;9.35;;
56537;SDS011;42435;53.292;6.000;2022-08-02T13:31:17;16.50;;;9.50;;
56537;SDS011;42435;53.292;6.000;2022-08-02T13:33:42;14.35;;;9.18;;
56537;SDS011;42435;53.292;6.000;2022-08-02T13:36:08;14.63;;;9.27;;
56537;SDS011;42435;53.292;6.000;2022-08-02T13:38:34;16.52;;;9.10;;
56537;SDS011;42435;53.292;6.000;2022-08-02T13:40:59;12.55;;;8.38;;
56537;SDS011;42435;53.292;6.000;2022-08-02T13:43:37;13.98;;;8.63;;
56537;SDS011;42435;53.292;6.000;2022-08-02T13:46:06;12.93;;;8.52;;
56537;SDS011;42435;53.292;6.000;2022-08-02T13:48:32;10.90;;;7.78;;
56537;SDS011;42435;53.292;6.000;2022-08-02T13:50:58;15.50;;;9.05;;
56537;SDS011;42435;53.292;6.000;2022-08-02T13:53:23;11.18;;;7.78;;
56537;SDS011;42435;53.292;6.000;2022-08-02T13:55:53;11.45;;;7.45;;
56537;SDS011;42435;53.292;6.000;2022-08-02T13:58:18;8.82;;;6.13;;
56537;SDS011;42435;53.292;6.000;2022-08-02T14:00:44;8.35;;;5.07;;
56537;SDS011;42435;53.292;6.000;2022-08-02T14:03:09;6.70;;;3.60;;
56537;SDS011;42435;53.292;6.000;2022-08-02T14:05:36;7.40;;;3.42;;
56537;SDS011;42435;53.292;6.000;2022-08-02T14:08:03;5.03;;;3.38;;
56537;SDS011;42435;53.292;6.000;2022-08-02T14:10:28;7.15;;;3.35;;
56537;SDS011;42435;53.292;6.000;2022-08-02T14:12:54;8.07;;;3.95;;
56537;SDS011;42435;53.292;6.000;2022-08-02T14:15:20;5.22;;;3.10;;
56537;SDS011;42435;53.292;6.000;2022-08-02T14:17:45;8.13;;;3.53;;
56537;SDS011;42435;53.292;6.000;2022-08-02T14:20:11;5.32;;;4.25;;
56537;SDS011;42435;53.292;6.000;2022-08-02T14:22:38;6.57;;;3.85;;
56537;SDS011;42435;53.292;6.000;2022-08-02T14:25:07;7.32;;;4.28;;
56537;SDS011;42435;53.292;6.000;2022-08-02T14:27:33;5.30;;;3.60;;
56537;SDS011;42435;53.292;6.000;2022-08-02T14:29:58;7.75;;;4.32;;
56537;SDS011;42435;53.292;6.000;2022-08-02T14:32:24;6.82;;;4.03;;
56537;SDS011;42435;53.292;6.000;2022-08-02T14:34:50;4.55;;;3.92;;
56537;SDS011;42435;53.292;6.000;2022-08-02T14:37:16;4.90;;;3.88;;
56537;SDS011;42435;53.292;6.000;2022-08-02T14:39:41;7.75;;;4.00;;
56537;SDS011;42435;53.292;6.000;2022-08-02T14:42:07;9.55;;;3.65;;
56537;SDS011;42435;53.292;6.000;2022-08-02T14:44:36;4.18;;;3.25;;
56537;SDS011;42435;53.292;6.000;2022-08-02T14:47:02;4.95;;;3.08;;
56537;SDS011;42435;53.292;6.000;2022-08-02T14:49:29;4.63;;;3.50;;
56537;SDS011;42435;53.292;6.000;2022-08-02T14:51:55;3.88;;;2.95;;
56537;SDS011;42435;53.292;6.000;2022-08-02T14:54:21;5.20;;;3.20;;
56537;SDS011;42435;53.292;6.000;2022-08-02T14:56:50;3.55;;;2.97;;
56537;SDS011;42435;53.292;6.000;2022-08-02T14:59:16;6.65;;;3.22;;
56537;SDS011;42435;53.292;6.000;2022-08-02T15:01:41;5.25;;;3.10;;
56537;SDS011;42435;53.292;6.000;2022-08-02T15:04:07;4.20;;;3.40;;
56537;SDS011;42435;53.292;6.000;2022-08-02T15:06:32;4.78;;;3.72;;
56537;SDS011;42435;53.292;6.000;2022-08-02T15:08:58;7.50;;;3.83;;
56537;SDS011;42435;53.292;6.000;2022-08-02T15:11:24;7.43;;;2.95;;
56537;SDS011;42435;53.292;6.000;2022-08-02T15:13:50;8.35;;;3.28;;
56537;SDS011;42435;53.292;6.000;2022-08-02T15:16:17;7.93;;;2.97;;
56537;SDS011;42435;53.292;6.000;2022-08-02T15:18:43;5.50;;;3.40;;
56537;SDS011;42435;53.292;6.000;2022-08-02T15:21:11;4.65;;;2.90;;
56537;SDS011;42435;53.292;6.000;2022-08-02T15:23:37;5.38;;;3.10;;
56537;SDS011;42435;53.292;6.000;2022-08-02T15:26:04;4.18;;;2.25;;
56537;SDS011;42435;53.292;6.000;2022-08-02T15:28:29;3.80;;;3.00;;
56537;SDS011;42435;53.292;6.000;2022-08-02T15:30:55;8.52;;;3.30;;
56537;SDS011;42435;53.292;6.000;2022-08-02T15:33:21;5.63;;;2.83;;
56537;SDS011;42435;53.292;6.000;2022-08-02T15:35:47;3.05;;;2.03;;
56537;SDS011;42435;53.292;6.000;2022-08-02T15:38:13;6.68;;;2.33;;
56537;SDS011;42435;53.292;6.000;2022-08-02T15:40:39;4.05;;;2.42;;
56537;SDS011;42435;53.292;6.000;2022-08-02T15:43:07;5.40;;;2.60;;
56537;SDS011;42435;53.292;6.000;2022-08-02T15:45:34;4.32;;;1.98;;
56537;SDS011;42435;53.292;6.000;2022-08-02T15:47:59;3.83;;;1.98;;
56537;SDS011;42435;53.292;6.000;2022-08-02T15:50:25;5.15;;;1.70;;
56537;SDS011;42435;53.292;6.000;2022-08-02T15:52:51;3.35;;;1.15;;